createdAt,value
2018-08-30T00:02:07.756Z,57.36
2018-08-30T00:03:07.742Z,57.26
2018-08-30T00:04:07.729Z,57.75
2018-08-30T00:05:07.712Z,57.55
2018-08-30T00:06:07.700Z,58.03
2018-08-30T00:07:07.703Z,58.03
2018-08-30T00:11:00.332Z,58.61
2018-08-30T00:12:00.337Z,58.29
2018-08-30T00:14:42.823Z,58.32
2018-08-30T00:15:42.808Z,58.51
2018-08-30T00:16:42.791Z,58.48
2018-08-30T00:17:42.777Z,58.67
2018-08-30T00:18:42.764Z,58.39
2018-08-30T00:19:42.750Z,58.39
2018-08-30T00:20:42.735Z,58.67
2018-08-30T00:21:42.719Z,58.39
2018-08-30T00:22:42.706Z,58.67
2018-08-30T00:23:42.692Z,58.10
2018-08-30T00:24:42.677Z,58.39
2018-08-30T00:25:42.663Z,58.29
2018-08-30T00:26:42.649Z,58.48
2018-08-30T00:27:42.635Z,58.20
2018-08-30T00:28:42.622Z,57.90
2018-08-30T00:29:42.609Z,57.90
2018-08-30T00:30:42.591Z,58.29
2018-08-30T00:31:42.580Z,58.67
2018-08-30T00:32:42.563Z,58.39
2018-08-30T00:33:42.553Z,58.58
2018-08-30T00:34:42.534Z,58.67
2018-08-30T00:35:42.518Z,58.29
2018-08-30T00:36:42.507Z,58.48
2018-08-30T00:37:42.492Z,58.20
2018-08-30T00:38:42.476Z,58.29
2018-08-30T00:39:42.468Z,58.20
2018-08-30T00:40:42.451Z,58.67
2018-08-30T00:41:42.435Z,58.74
2018-08-30T00:42:42.420Z,58.55
2018-08-30T00:43:42.406Z,58.26
2018-08-30T00:44:42.393Z,58.64
2018-08-30T00:45:42.377Z,58.94
2018-08-30T00:46:42.362Z,58.26
2018-08-30T00:47:42.351Z,58.74
2018-08-30T00:48:42.334Z,58.67
2018-08-30T00:49:42.322Z,58.74
2018-08-30T00:50:42.304Z,58.45
2018-08-30T00:51:42.291Z,58.36
2018-08-30T00:52:42.275Z,59.03
2018-08-30T00:53:42.263Z,58.64
2018-08-30T00:54:42.246Z,58.64
2018-08-30T00:55:42.234Z,58.84
2018-08-30T00:56:42.219Z,58.84
2018-08-30T00:57:42.205Z,58.55
2018-08-30T00:58:42.189Z,58.74
2018-08-30T00:59:42.179Z,58.84
2018-08-30T01:00:42.162Z,58.84
2018-08-30T01:01:42.145Z,58.64
2018-08-30T01:02:42.180Z,58.84
2018-08-30T01:03:42.117Z,58.94
2018-08-30T01:04:42.102Z,59.03
2018-08-30T01:05:42.087Z,59.12
2018-08-30T01:06:42.072Z,58.74
2018-08-30T01:07:42.058Z,58.94
2018-08-30T01:09:54.622Z,59.22
2018-08-30T01:10:54.605Z,59.12
2018-08-30T01:11:54.591Z,59.03
2018-08-30T01:12:58.616Z,59.80
2018-08-30T01:13:54.561Z,59.99
2018-08-30T01:14:54.552Z,59.89
2018-08-30T01:15:54.533Z,59.03
2018-08-30T01:16:54.519Z,59.61
2018-08-30T01:17:54.506Z,59.70
2018-08-30T01:18:54.501Z,59.80
2018-08-30T01:19:54.475Z,59.51
2018-08-30T01:20:54.458Z,59.70
2018-08-30T01:21:54.447Z,59.61
2018-08-30T01:22:54.431Z,59.99
2018-08-30T01:23:54.424Z,59.51
2018-08-30T01:24:54.406Z,59.99
2018-08-30T01:25:54.388Z,60.08
2018-08-30T01:26:54.372Z,59.99
2018-08-30T01:27:54.356Z,60.18
2018-08-30T01:28:54.340Z,60.28
2018-08-30T01:29:54.325Z,59.70
2018-08-30T01:30:54.314Z,59.70
2018-08-30T01:31:54.296Z,59.86
2018-08-30T01:32:54.285Z,59.80
2018-08-30T01:33:54.269Z,59.61
2018-08-30T01:35:46.796Z,60.15
2018-08-30T01:36:46.782Z,60.05
2018-08-30T01:37:46.768Z,60.05
2018-08-30T01:38:46.756Z,60.05
2018-08-30T01:39:46.739Z,60.66
2018-08-30T01:43:02.545Z,60.35
2018-08-30T01:43:59.301Z,60.53
2018-08-30T01:44:59.286Z,60.53
2018-08-30T01:45:59.272Z,60.92
2018-08-30T01:46:59.259Z,60.53
2018-08-30T01:47:59.243Z,60.44
2018-08-30T01:48:59.228Z,60.63
2018-08-30T01:49:59.214Z,60.72
2018-08-30T01:50:59.198Z,60.72
2018-08-30T01:53:01.742Z,60.72
2018-08-30T01:54:01.744Z,60.72
2018-08-30T01:55:44.241Z,61.40
2018-08-30T01:56:44.226Z,60.92
2018-08-30T01:57:44.212Z,61.49
2018-08-30T01:58:44.196Z,61.78
2018-08-30T01:59:44.184Z,61.21
2018-08-30T02:00:44.167Z,61.21
2018-08-30T02:01:44.153Z,61.11
2018-08-30T02:02:44.136Z,61.21
2018-08-30T02:03:44.123Z,61.30
2018-08-30T02:04:44.109Z,61.49
2018-08-30T02:05:44.092Z,61.69
2018-08-30T02:06:44.077Z,62.65
2018-08-30T02:07:44.061Z,62.26
2018-08-30T02:08:44.048Z,62.26
2018-08-30T02:09:44.032Z,62.55
2018-08-30T02:10:44.022Z,62.93
2018-08-30T02:11:44.002Z,62.93
2018-08-30T02:12:43.985Z,62.36
2018-08-30T02:13:43.971Z,63.12
2018-08-30T02:14:43.954Z,62.74
2018-08-30T02:15:43.942Z,62.74
2018-08-30T02:16:43.926Z,62.84
2018-08-30T02:17:43.910Z,62.93
2018-08-30T02:18:43.895Z,62.93
2018-08-30T02:19:43.882Z,63.00
2018-08-30T02:20:43.865Z,63.12
2018-08-30T02:21:43.850Z,62.93
2018-08-30T02:22:43.844Z,62.93
2018-08-30T02:23:43.818Z,63.29
2018-08-30T02:24:43.808Z,63.09
2018-08-30T02:25:43.788Z,63.32
2018-08-30T02:26:43.777Z,63.57
2018-08-30T02:27:43.758Z,63.19
2018-08-30T02:28:43.742Z,63.86
2018-08-30T02:29:43.733Z,63.29
2018-08-30T02:30:43.712Z,63.67
2018-08-30T02:31:43.703Z,63.67
2018-08-30T02:32:43.692Z,63.76
2018-08-30T02:33:43.667Z,63.57
2018-08-30T02:34:43.650Z,63.89
2018-08-30T02:35:43.637Z,63.76
2018-08-30T02:36:43.622Z,63.76
2018-08-30T02:37:43.607Z,63.89
2018-08-30T02:38:43.591Z,63.96
2018-08-30T02:39:43.577Z,63.67
2018-08-30T02:40:43.564Z,63.79
2018-08-30T02:41:43.551Z,63.76
2018-08-30T02:42:43.543Z,63.67
2018-08-30T02:43:43.514Z,63.76
2018-08-30T02:44:43.500Z,64.05
2018-08-30T02:45:43.487Z,64.15
2018-08-30T02:46:43.477Z,63.86
2018-08-30T02:47:43.454Z,64.43
2018-08-30T02:48:43.441Z,64.53
2018-08-30T02:49:43.425Z,64.63
2018-08-30T02:50:43.415Z,64.43
2018-08-30T02:51:43.395Z,64.43
2018-08-30T02:52:43.380Z,64.43
2018-08-30T02:53:43.362Z,64.63
2018-08-30T02:54:43.345Z,64.72
2018-08-30T02:55:43.335Z,64.25
2018-08-30T02:56:43.317Z,64.63
2018-08-30T02:57:43.301Z,65.01
2018-08-30T02:58:43.285Z,64.72
2018-08-30T02:59:43.270Z,64.82
2018-08-30T03:00:43.256Z,65.30
2018-08-30T03:01:43.243Z,64.63
2018-08-30T03:02:43.225Z,65.20
2018-08-30T03:03:43.212Z,64.72
2018-08-30T03:04:43.193Z,65.11
2018-08-30T03:05:43.179Z,65.30
2018-08-30T03:06:43.163Z,65.01
2018-08-30T03:07:43.147Z,65.01
2018-08-30T03:08:43.131Z,65.11
2018-08-30T03:09:43.121Z,65.11
2018-08-30T03:10:43.100Z,65.30
2018-08-30T03:11:43.089Z,65.26
2018-08-30T03:12:43.070Z,65.97
2018-08-30T03:13:43.062Z,65.11
2018-08-30T03:14:43.040Z,65.97
2018-08-30T03:15:43.024Z,65.39
2018-08-30T03:16:43.008Z,66.32
2018-08-30T03:17:43.009Z,65.94
2018-08-30T03:18:42.978Z,65.94
2018-08-30T03:19:42.963Z,65.75
2018-08-30T03:20:42.951Z,65.65
2018-08-30T03:21:42.931Z,65.46
2018-08-30T03:22:42.917Z,65.55
2018-08-30T03:23:42.901Z,65.65
2018-08-30T03:24:42.888Z,65.94
2018-08-30T03:25:42.875Z,65.75
2018-08-30T03:26:42.856Z,65.75
2018-08-30T03:27:42.839Z,65.94
2018-08-30T03:28:42.825Z,65.84
2018-08-30T03:29:42.812Z,66.13
2018-08-30T03:30:42.859Z,66.42
2018-08-30T03:31:42.777Z,66.51
2018-08-30T03:32:42.763Z,66.32
2018-08-30T03:33:42.747Z,66.80
2018-08-30T03:34:42.735Z,66.61
2018-08-30T03:35:42.717Z,66.42
2018-08-30T03:36:42.700Z,66.71
2018-08-30T03:37:42.685Z,66.71
2018-08-30T03:38:42.673Z,66.32
2018-08-30T03:39:42.655Z,67.18
2018-08-30T03:40:42.637Z,66.80
2018-08-30T03:41:42.619Z,65.75
2018-08-30T03:42:42.606Z,66.71
2018-08-30T03:43:42.594Z,66.42
2018-08-30T03:44:42.575Z,66.61
2018-08-30T03:45:42.559Z,66.71
2018-08-30T03:46:42.545Z,67.38
2018-08-30T03:47:42.529Z,66.99
2018-08-30T03:48:42.514Z,66.99
2018-08-30T03:49:42.499Z,67.66
2018-08-30T03:50:42.481Z,67.38
2018-08-30T03:51:42.468Z,67.18
2018-08-30T03:52:42.452Z,66.99
2018-08-30T03:53:42.443Z,67.18
2018-08-30T03:54:42.419Z,67.09
2018-08-30T03:55:42.408Z,67.28
2018-08-30T03:56:42.388Z,67.57
2018-08-30T03:57:42.375Z,67.85
2018-08-30T03:58:42.357Z,67.85
2018-08-30T03:59:42.342Z,68.14
2018-08-30T04:00:42.328Z,67.95
2018-08-30T04:01:42.312Z,68.14
2018-08-30T04:02:42.300Z,68.14
2018-08-30T04:03:42.280Z,68.33
2018-08-30T04:04:42.264Z,68.59
2018-08-30T04:05:42.248Z,68.43
2018-08-30T04:06:42.232Z,68.01
2018-08-30T04:07:42.219Z,68.43
2018-08-30T04:08:42.202Z,68.30
2018-08-30T04:09:42.186Z,68.49
2018-08-30T04:10:42.171Z,68.87
2018-08-30T04:11:42.156Z,69.07
2018-08-30T04:12:42.138Z,69.17
2018-08-30T04:13:42.190Z,69.26
2018-08-30T04:14:42.124Z,69.74
2018-08-30T04:15:42.092Z,69.93
2018-08-30T04:16:42.080Z,70.50
2018-08-30T04:17:42.063Z,69.54
2018-08-30T04:18:42.043Z,69.07
2018-08-30T04:19:42.027Z,69.07
2018-08-30T04:20:42.011Z,69.35
2018-08-30T04:21:41.998Z,69.35
2018-08-30T04:22:41.983Z,69.35
2018-08-30T04:23:41.964Z,69.07
2018-08-30T04:24:41.951Z,70.31
2018-08-30T04:25:41.932Z,70.50
2018-08-30T04:26:41.918Z,69.83
2018-08-30T04:27:41.904Z,69.74
2018-08-30T04:28:41.890Z,70.60
2018-08-30T04:29:41.872Z,69.64
2018-08-30T04:30:41.858Z,70.03
2018-08-30T04:31:41.840Z,70.98
2018-08-30T04:32:41.826Z,70.79
2018-08-30T04:33:41.814Z,70.79
2018-08-30T04:34:41.793Z,70.89
2018-08-30T04:35:41.775Z,70.70
2018-08-30T04:36:41.761Z,70.60
2018-08-30T04:37:41.753Z,70.60
2018-08-30T04:38:41.737Z,71.27
2018-08-30T04:39:41.717Z,70.70
2018-08-30T04:40:41.698Z,71.37
2018-08-30T04:41:41.682Z,71.08
2018-08-30T04:42:41.743Z,71.08
2018-08-30T04:43:41.650Z,71.08
2018-08-30T04:44:41.639Z,70.98
2018-08-30T04:45:41.620Z,71.27
2018-08-30T04:46:41.602Z,71.46
2018-08-30T04:47:41.591Z,71.27
2018-08-30T04:48:41.571Z,71.94
2018-08-30T04:49:41.556Z,71.75
2018-08-30T04:50:41.618Z,71.08
2018-08-30T04:51:41.531Z,70.64
2018-08-30T04:52:41.511Z,70.60
2018-08-30T04:53:41.493Z,71.46
2018-08-30T04:54:41.480Z,71.56
2018-08-30T04:55:41.463Z,70.98
2018-08-30T04:56:41.446Z,70.89
2018-08-30T04:57:41.432Z,71.46
2018-08-30T04:58:41.413Z,71.56
2018-08-30T04:59:41.399Z,70.79
2018-08-30T05:00:41.424Z,70.89
2018-08-30T05:01:41.447Z,71.46
2018-08-30T05:02:41.361Z,71.50
2018-08-30T05:03:41.336Z,71.84
2018-08-30T05:04:41.321Z,70.73
2018-08-30T05:05:41.304Z,70.54
2018-08-30T05:06:41.291Z,70.44
2018-08-30T05:07:41.273Z,70.83
2018-08-30T05:08:41.257Z,70.64
2018-08-30T05:09:41.242Z,71.02
2018-08-30T05:10:41.228Z,70.83
2018-08-30T05:11:41.215Z,70.54
2018-08-30T05:12:41.214Z,71.78
2018-08-30T05:13:41.183Z,70.92
2018-08-30T05:14:41.164Z,70.83
2018-08-30T05:15:41.149Z,70.64
2018-08-30T05:16:41.228Z,71.02
2018-08-30T05:17:41.116Z,71.02
2018-08-30T05:18:41.111Z,71.69
2018-08-30T05:19:41.088Z,71.82
2018-08-30T05:20:41.071Z,71.25
2018-08-30T05:21:41.057Z,71.34
2018-08-30T05:22:41.039Z,70.86
2018-08-30T05:23:41.023Z,70.96
2018-08-30T05:24:41.008Z,70.86
2018-08-30T05:25:40.994Z,70.57
2018-08-30T05:26:40.979Z,70.67
2018-08-30T05:27:40.964Z,70.29
2018-08-30T05:28:40.959Z,69.81
2018-08-30T05:29:40.975Z,70.03
2018-08-30T05:30:40.914Z,69.74
2018-08-30T05:31:40.904Z,70.38
2018-08-30T05:32:40.887Z,70.90
2018-08-30T05:33:40.871Z,70.90
2018-08-30T05:34:40.855Z,71.19
2018-08-30T05:35:40.870Z,71.47
2018-08-30T05:36:40.826Z,70.51
2018-08-30T05:37:40.811Z,70.13
2018-08-30T05:38:40.793Z,70.61
2018-08-30T05:39:40.780Z,70.51
2018-08-30T05:40:40.763Z,70.61
2018-08-30T05:41:40.751Z,69.65
2018-08-30T05:42:40.734Z,69.78
2018-08-30T05:43:40.719Z,69.36
2018-08-30T05:44:40.759Z,68.98
2018-08-30T05:45:40.691Z,69.40
2018-08-30T05:46:40.672Z,68.63
2018-08-30T05:47:40.657Z,69.01
2018-08-30T05:48:40.642Z,67.96
2018-08-30T05:49:40.634Z,67.96
2018-08-30T05:50:40.612Z,68.15
2018-08-30T05:51:40.598Z,67.19
2018-08-30T05:52:40.583Z,67.47
2018-08-30T05:53:40.568Z,68.05
2018-08-30T05:54:40.551Z,67.57
2018-08-30T05:55:40.539Z,67.38
2018-08-30T05:56:40.554Z,67.09
2018-08-30T05:57:40.509Z,67.38
2018-08-30T05:58:40.494Z,68.18
2018-08-30T05:59:40.481Z,67.38
2018-08-30T06:00:40.463Z,67.19
2018-08-30T06:01:40.449Z,67.09
2018-08-30T06:02:40.436Z,68.37
2018-08-30T06:03:40.418Z,68.76
2018-08-30T06:04:40.408Z,68.37
2018-08-30T06:05:40.392Z,68.85
2018-08-30T06:06:40.376Z,68.76
2018-08-30T06:07:40.359Z,68.66
2018-08-30T06:08:40.346Z,68.57
2018-08-30T06:09:40.334Z,68.95
2018-08-30T06:10:40.365Z,69.34
2018-08-30T06:11:40.303Z,69.14
2018-08-30T06:12:40.287Z,68.85
2018-08-30T06:13:40.323Z,68.76
2018-08-30T06:14:40.258Z,68.28
2018-08-30T06:15:40.243Z,68.47
2018-08-30T06:16:40.229Z,68.66
2018-08-30T06:17:40.218Z,68.12
2018-08-30T06:18:40.201Z,67.64
2018-08-30T06:19:40.182Z,68.02
2018-08-30T06:20:40.181Z,67.45
2018-08-30T06:21:40.153Z,67.25
2018-08-30T06:22:40.139Z,67.35
2018-08-30T06:23:40.131Z,66.77
2018-08-30T06:24:40.109Z,65.91
2018-08-30T06:25:40.101Z,66.14
2018-08-30T06:26:40.122Z,66.23
2018-08-30T06:27:40.073Z,65.94
2018-08-30T06:28:40.054Z,66.14
2018-08-30T06:29:40.040Z,66.04
2018-08-30T06:30:40.025Z,66.14
2018-08-30T06:31:40.013Z,66.14
2018-08-30T06:32:40.015Z,66.04
2018-08-30T06:33:39.984Z,65.88
2018-08-30T06:34:40.000Z,65.01
2018-08-30T06:35:39.953Z,64.82
2018-08-30T06:36:39.942Z,65.50
2018-08-30T06:37:39.926Z,65.69
2018-08-30T06:38:40.069Z,65.59
2018-08-30T06:39:39.899Z,64.43
2018-08-30T06:40:39.885Z,64.82
2018-08-30T06:41:39.872Z,65.20
2018-08-30T06:42:39.858Z,65.59
2018-08-30T06:43:39.853Z,65.59
2018-08-30T06:44:39.832Z,64.82
2018-08-30T06:45:39.817Z,65.20
2018-08-30T06:46:39.805Z,64.92
2018-08-30T06:47:39.792Z,65.24
2018-08-30T06:48:39.902Z,65.01
2018-08-30T06:49:39.769Z,65.33
2018-08-30T06:50:39.751Z,65.14
2018-08-30T06:51:39.734Z,64.56
2018-08-30T06:52:39.721Z,64.28
2018-08-30T06:53:39.717Z,64.37
2018-08-30T06:54:39.701Z,64.86
2018-08-30T06:55:39.681Z,64.76
2018-08-30T06:56:39.671Z,65.14
2018-08-30T06:57:39.657Z,64.66
2018-08-30T06:58:39.640Z,65.24
2018-08-30T06:59:39.627Z,65.14
2018-08-30T07:00:39.615Z,64.66
2018-08-30T07:01:39.602Z,64.76
2018-08-30T07:02:39.594Z,64.66
2018-08-30T07:03:39.579Z,65.14
2018-08-30T07:04:39.564Z,64.66
2018-08-30T07:05:39.547Z,65.05
2018-08-30T07:06:39.541Z,64.76
2018-08-30T07:07:39.526Z,64.86
2018-08-30T07:08:39.510Z,64.95
2018-08-30T07:09:39.494Z,64.47
2018-08-30T07:10:39.482Z,65.33
2018-08-30T07:11:39.467Z,64.76
2018-08-30T07:12:39.456Z,65.24
2018-08-30T07:13:39.442Z,65.14
2018-08-30T07:14:39.479Z,64.95
2018-08-30T07:15:39.418Z,65.63
2018-08-30T07:16:39.406Z,65.43
2018-08-30T07:17:39.390Z,66.01
2018-08-30T07:18:39.373Z,65.72
2018-08-30T07:19:39.370Z,65.63
2018-08-30T07:20:39.350Z,65.24
2018-08-30T07:21:39.336Z,66.30
2018-08-30T07:22:39.322Z,65.43
2018-08-30T07:23:39.309Z,65.24
2018-08-30T07:24:39.295Z,66.01
2018-08-30T07:25:39.286Z,65.43
2018-08-30T07:26:39.268Z,65.91
2018-08-30T07:27:39.255Z,66.20
2018-08-30T07:28:39.328Z,65.91
2018-08-30T07:29:39.229Z,66.10
2018-08-30T07:30:39.221Z,66.49
2018-08-30T07:31:39.201Z,66.01
2018-08-30T07:32:39.189Z,66.01
2018-08-30T07:33:39.183Z,66.10
2018-08-30T07:34:39.227Z,66.49
2018-08-30T07:35:39.147Z,66.81
2018-08-30T07:36:39.134Z,66.58
2018-08-30T07:37:39.132Z,67.29
2018-08-30T07:38:39.107Z,66.42
2018-08-30T07:39:39.099Z,66.42
2018-08-30T07:40:39.081Z,66.14
2018-08-30T07:41:39.069Z,65.94
2018-08-30T07:42:39.054Z,66.04
2018-08-30T07:43:39.042Z,67.29
2018-08-30T07:44:39.201Z,67.00
2018-08-30T07:45:39.020Z,66.52
2018-08-30T07:46:39.002Z,66.71
2018-08-30T07:47:38.989Z,67.49
2018-08-30T07:48:38.984Z,67.49
2018-08-30T07:49:38.965Z,67.77
2018-08-30T07:50:38.957Z,67.77
2018-08-30T07:51:38.935Z,67.87
2018-08-30T07:52:38.923Z,68.16
2018-08-30T07:53:38.916Z,68.44
2018-08-30T07:54:38.976Z,68.84
2018-08-30T07:55:38.890Z,68.64
2018-08-30T07:56:38.870Z,68.74
2018-08-30T07:57:38.859Z,68.87
2018-08-30T07:58:38.845Z,68.84
2018-08-30T07:59:38.834Z,68.54
2018-08-30T08:00:38.820Z,68.64
2018-08-30T08:01:38.808Z,69.02
2018-08-30T08:02:38.792Z,69.35
2018-08-30T08:03:38.778Z,69.51
2018-08-30T08:04:38.766Z,69.22
2018-08-30T08:05:38.755Z,69.93
2018-08-30T08:06:38.739Z,69.70
2018-08-30T08:07:38.727Z,69.54
2018-08-30T08:08:38.715Z,69.25
2018-08-30T08:09:38.702Z,69.64
2018-08-30T08:10:38.688Z,69.93
2018-08-30T08:11:38.677Z,70.50
2018-08-30T08:12:38.706Z,70.02
2018-08-30T08:13:38.650Z,70.41
2018-08-30T08:14:38.635Z,71.37
2018-08-30T08:15:38.622Z,70.70
2018-08-30T08:16:38.613Z,71.37
2018-08-30T08:17:38.597Z,71.76
2018-08-30T08:18:38.583Z,71.66
2018-08-30T08:19:38.572Z,72.33
2018-08-30T08:20:38.562Z,72.81
2018-08-30T08:21:38.546Z,72.63
2018-08-30T08:22:38.531Z,72.91
2018-08-30T08:23:38.519Z,72.43
2018-08-30T08:24:38.518Z,72.91
2018-08-30T08:25:38.496Z,74.74
2018-08-30T08:26:38.482Z,74.65
2018-08-30T08:27:38.469Z,76.57
2018-08-30T08:28:38.456Z,78.21
2018-08-30T08:29:38.440Z,81.01
2018-08-30T08:30:38.428Z,79.17
2018-08-30T08:31:38.415Z,78.59
2018-08-30T08:32:38.406Z,78.40
2018-08-30T08:33:38.389Z,78.56
2018-08-30T08:34:38.377Z,78.36
2018-08-30T08:35:38.364Z,77.88
2018-08-30T08:36:38.351Z,79.61
2018-08-30T08:37:38.340Z,79.03
2018-08-30T08:38:38.326Z,79.13
2018-08-30T08:39:38.313Z,79.71
2018-08-30T08:40:38.298Z,80.19
2018-08-30T08:41:38.287Z,81.25
2018-08-30T08:42:38.275Z,82.50
2018-08-30T08:43:38.268Z,82.37
2018-08-30T08:44:38.248Z,82.27
2018-08-30T08:45:38.233Z,82.37
2018-08-30T08:46:38.221Z,83.04
2018-08-30T08:47:38.210Z,83.04
2018-08-30T08:48:38.194Z,82.85
2018-08-30T08:49:38.184Z,82.94
2018-08-30T08:50:38.175Z,83.04
2018-08-30T08:51:38.154Z,83.14
2018-08-30T08:52:38.145Z,83.62
2018-08-30T08:53:38.155Z,83.72
2018-08-30T08:54:38.118Z,83.62
2018-08-30T08:55:38.104Z,83.14
2018-08-30T08:56:38.094Z,82.94
2018-08-30T08:57:38.075Z,83.14
2018-08-30T08:58:38.107Z,82.65
2018-08-30T08:59:38.050Z,83.62
2018-08-30T09:00:38.037Z,83.23
2018-08-30T09:01:38.026Z,82.85
2018-08-30T09:02:38.010Z,83.04
2018-08-30T09:03:37.997Z,82.85
2018-08-30T09:04:37.985Z,82.46
2018-08-30T09:05:37.972Z,82.65
2018-08-30T09:06:37.956Z,82.94
2018-08-30T09:07:38.074Z,82.65
2018-08-30T09:08:37.932Z,82.37
2018-08-30T09:09:37.917Z,82.94
2018-08-30T09:10:37.906Z,83.04
2018-08-30T09:11:37.898Z,82.85
2018-08-30T09:12:37.878Z,83.42
2018-08-30T09:13:37.881Z,83.62
2018-08-30T09:14:37.851Z,83.33
2018-08-30T09:15:37.840Z,84.39
2018-08-30T09:16:37.826Z,84.19
2018-08-30T09:17:37.814Z,83.91
2018-08-30T09:18:37.799Z,84.87
2018-08-30T09:19:37.783Z,85.83
2018-08-30T09:20:37.771Z,87.18
2018-08-30T09:21:37.756Z,88.14
2018-08-30T09:22:37.749Z,89.10
2018-08-30T09:23:37.739Z,89.10
2018-08-30T09:24:37.719Z,90.16
2018-08-30T09:25:37.704Z,90.79
2018-08-30T09:26:37.745Z,90.35
2018-08-30T09:27:37.678Z,90.98
2018-08-30T09:28:37.670Z,91.56
2018-08-30T09:29:37.653Z,93.19
2018-08-30T09:30:37.640Z,92.33
2018-08-30T09:31:37.624Z,92.43
2018-08-30T09:32:37.611Z,93.96
2018-08-30T09:33:37.601Z,93.19
2018-08-30T09:34:37.589Z,93.29
2018-08-30T09:35:37.569Z,94.35
2018-08-30T09:36:37.560Z,93.19
2018-08-30T09:37:37.544Z,94.15
2018-08-30T09:38:37.531Z,94.25
2018-08-30T09:39:37.517Z,95.55
2018-08-30T09:40:37.503Z,95.45
2018-08-30T09:41:37.490Z,96.80
2018-08-30T09:42:37.477Z,97.09
2018-08-30T09:43:37.467Z,99.98
2018-08-30T09:44:37.495Z,99.01
2018-08-30T09:45:37.435Z,99.49
2018-08-30T09:46:37.421Z,99.99
2018-08-30T09:47:37.404Z,99.99
2018-08-30T09:48:37.402Z,99.99
2018-08-30T09:49:37.435Z,99.99
2018-08-30T09:50:37.369Z,99.99
2018-08-30T09:51:37.359Z,99.99
2018-08-30T09:52:37.339Z,99.99
2018-08-30T09:53:37.328Z,99.99
2018-08-30T09:54:37.310Z,99.99
2018-08-30T09:55:37.323Z,99.99
2018-08-30T09:56:37.345Z,99.99
2018-08-30T09:57:37.359Z,99.99
2018-08-30T09:58:37.256Z,99.99
2018-08-30T09:59:37.244Z,99.99
2018-08-30T10:00:37.225Z,99.99
2018-08-30T10:01:37.218Z,99.99
2018-08-30T10:02:37.197Z,99.99
2018-08-30T10:03:37.227Z,99.99
2018-08-30T10:04:37.211Z,99.99
2018-08-30T10:05:37.155Z,99.99
2018-08-30T10:06:37.142Z,99.99
2018-08-30T10:07:37.126Z,99.99
2018-08-30T10:08:37.114Z,99.99
2018-08-30T10:09:37.101Z,99.99
2018-08-30T10:10:37.083Z,99.99
2018-08-30T10:11:37.068Z,99.99
2018-08-30T10:12:37.082Z,99.99
2018-08-30T10:13:37.040Z,99.99
2018-08-30T10:14:37.026Z,99.99
2018-08-30T10:15:37.011Z,99.99
2018-08-30T10:16:36.996Z,99.99
2018-08-30T10:17:36.983Z,99.99
2018-08-30T10:18:36.972Z,99.99
2018-08-30T10:19:36.954Z,99.99
2018-08-30T10:20:36.942Z,99.99
2018-08-30T10:21:36.983Z,99.99
2018-08-30T10:22:36.915Z,99.99
2018-08-30T10:23:36.895Z,99.99
2018-08-30T10:24:36.879Z,99.99
2018-08-30T10:25:36.865Z,99.99
2018-08-30T10:26:36.850Z,99.99
2018-08-30T10:27:36.837Z,99.99
2018-08-30T10:28:36.821Z,99.99
2018-08-30T10:29:36.807Z,99.99
2018-08-30T10:30:36.792Z,99.99
2018-08-30T10:31:36.924Z,99.99
2018-08-30T10:32:36.766Z,99.99
2018-08-30T10:33:36.749Z,99.99
2018-08-30T10:34:36.759Z,99.99
2018-08-30T10:35:36.725Z,99.99
2018-08-30T10:36:36.706Z,99.99
2018-08-30T10:37:36.692Z,99.99
2018-08-30T10:38:36.675Z,99.99
2018-08-30T10:39:36.666Z,99.99
2018-08-30T10:40:36.647Z,99.99
2018-08-30T10:41:36.644Z,99.99
2018-08-30T10:42:36.619Z,99.99
2018-08-30T10:43:36.602Z,99.99
2018-08-30T10:44:36.590Z,99.99
2018-08-30T10:45:36.586Z,99.99
2018-08-30T10:46:36.560Z,99.99
2018-08-30T10:47:36.548Z,99.99
2018-08-30T10:48:36.531Z,99.99
2018-08-30T10:49:36.666Z,99.99
2018-08-30T10:50:36.501Z,99.99
2018-08-30T10:51:36.494Z,99.99
2018-08-30T10:52:36.473Z,99.99
2018-08-30T10:53:36.457Z,99.99
2018-08-30T10:54:36.444Z,99.99
2018-08-30T10:55:36.430Z,99.99
2018-08-30T10:56:36.416Z,99.99
2018-08-30T10:57:36.401Z,99.99
2018-08-30T10:58:36.390Z,99.99
2018-08-30T10:59:36.371Z,99.99
2018-08-30T11:00:36.358Z,99.99
2018-08-30T11:01:36.344Z,99.99
2018-08-30T11:02:36.328Z,99.99
2018-08-30T11:03:36.313Z,99.99
2018-08-30T11:04:36.304Z,99.99
2018-08-30T11:05:36.286Z,99.99
2018-08-30T11:06:36.274Z,99.99
2018-08-30T11:07:36.254Z,99.99
2018-08-30T11:08:36.242Z,99.99
2018-08-30T11:09:36.232Z,99.99
2018-08-30T11:10:36.219Z,99.99
2018-08-30T11:11:36.197Z,99.99
2018-08-30T11:12:36.183Z,99.99
2018-08-30T11:13:36.294Z,99.99
2018-08-30T11:14:36.155Z,99.99
2018-08-30T11:15:36.139Z,99.99
2018-08-30T11:16:36.127Z,99.99
2018-08-30T11:17:36.109Z,99.99
2018-08-30T11:18:36.097Z,99.99
2018-08-30T11:19:36.082Z,99.99
2018-08-30T11:20:36.066Z,99.99
2018-08-30T11:21:36.056Z,99.99
2018-08-30T11:22:36.037Z,99.99
2018-08-30T11:23:36.055Z,99.99
2018-08-30T11:24:36.080Z,99.99
2018-08-30T11:25:36.005Z,99.99
2018-08-30T11:26:35.981Z,99.99
2018-08-30T11:27:35.968Z,99.99
2018-08-30T11:28:35.953Z,99.99
2018-08-30T11:29:35.938Z,99.99
2018-08-30T11:30:35.928Z,99.99
2018-08-30T11:31:35.913Z,99.99
2018-08-30T11:32:35.896Z,99.99
2018-08-30T11:33:35.885Z,99.99
2018-08-30T11:34:35.865Z,99.99
2018-08-30T11:35:35.852Z,99.99
2018-08-30T11:36:35.839Z,99.99
2018-08-30T11:37:35.914Z,99.99
2018-08-30T11:38:35.813Z,99.99
2018-08-30T11:39:35.795Z,99.99
2018-08-30T11:40:35.782Z,99.99
2018-08-30T11:41:35.956Z,99.99
2018-08-30T11:42:35.753Z,99.99
2018-08-30T11:43:35.739Z,99.99
2018-08-30T11:44:35.724Z,99.99
2018-08-30T11:45:35.709Z,99.99
2018-08-30T11:46:35.697Z,99.99
2018-08-30T11:47:35.680Z,99.99
2018-08-30T11:48:35.669Z,99.99
2018-08-30T11:49:35.655Z,99.99
2018-08-30T11:50:35.642Z,99.99
2018-08-30T11:51:35.624Z,99.99
2018-08-30T11:52:35.651Z,99.99
2018-08-30T11:53:35.595Z,99.99
2018-08-30T11:54:35.581Z,99.99
2018-08-30T11:55:35.567Z,99.99
2018-08-30T11:56:35.557Z,99.99
2018-08-30T11:57:35.548Z,99.99
2018-08-30T11:58:35.529Z,99.99
2018-08-30T11:59:35.510Z,99.99
2018-08-30T12:00:35.497Z,99.99
2018-08-30T12:01:35.482Z,99.99
2018-08-30T12:02:35.468Z,99.99
2018-08-30T12:03:35.454Z,99.99
2018-08-30T12:04:35.440Z,99.99
2018-08-30T12:05:35.427Z,99.99
2018-08-30T12:06:35.417Z,99.99
2018-08-30T12:07:35.396Z,99.99
2018-08-30T12:08:35.385Z,99.99
2018-08-30T12:09:35.370Z,99.99
2018-08-30T12:10:35.432Z,99.99
2018-08-30T12:11:35.444Z,99.99
2018-08-30T12:12:35.326Z,99.99
2018-08-30T12:13:35.314Z,99.99
2018-08-30T12:14:35.299Z,99.99
2018-08-30T12:15:35.282Z,99.99
2018-08-30T12:16:35.270Z,99.99
2018-08-30T12:17:35.258Z,99.99
2018-08-30T12:18:35.245Z,99.99
2018-08-30T12:19:35.229Z,99.99
2018-08-30T12:20:35.248Z,99.99
2018-08-30T12:21:35.200Z,99.99
2018-08-30T12:22:35.192Z,99.99
2018-08-30T12:23:35.177Z,99.99
2018-08-30T12:24:35.160Z,99.99
2018-08-30T12:25:35.155Z,99.98
2018-08-30T12:26:35.183Z,99.99
2018-08-30T12:27:35.123Z,99.99
2018-08-30T12:28:35.218Z,99.40
2018-08-30T12:29:35.098Z,98.82
2018-08-30T12:30:35.124Z,98.82
2018-08-30T12:31:35.096Z,99.40
2018-08-30T12:32:35.154Z,98.44
2018-08-30T12:33:35.129Z,98.14
2018-08-30T12:34:35.091Z,97.19
2018-08-30T12:35:35.077Z,98.54
2018-08-30T12:36:34.995Z,98.44
2018-08-30T12:37:35.004Z,97.47
2018-08-30T12:38:35.009Z,96.99
2018-08-30T12:39:34.961Z,97.38
2018-08-30T12:40:34.941Z,97.09
2018-08-30T12:41:34.971Z,94.10
2018-08-30T12:42:34.988Z,95.17
2018-08-30T12:43:35.002Z,94.59
2018-08-30T12:44:34.911Z,94.40
2018-08-30T12:45:34.901Z,95.26
2018-08-30T12:46:34.888Z,95.26
2018-08-30T12:47:34.845Z,96.70
2018-08-30T12:48:34.860Z,97.09
2018-08-30T12:49:34.839Z,95.55
2018-08-30T12:50:35.012Z,95.65
2018-08-30T12:51:35.067Z,93.72
2018-08-30T12:52:34.901Z,94.78
2018-08-30T12:53:34.857Z,93.62
2018-08-30T12:54:34.844Z,93.72
2018-08-30T12:55:34.886Z,94.30
2018-08-30T12:56:34.807Z,94.20
2018-08-30T12:57:34.859Z,94.40
2018-08-30T12:58:34.853Z,94.59
2018-08-30T12:59:34.786Z,93.72
2018-08-30T13:00:34.839Z,93.24
2018-08-30T13:01:34.782Z,93.82
2018-08-30T13:02:34.816Z,93.62
2018-08-30T13:03:34.817Z,93.24
2018-08-30T13:04:35.112Z,92.66